KJAX/JAX METAR and TAF weather

Enter ICAO airport designator
Station Type Date Time Source
KJAX METAR 2020/01/29 12:56 UTC NOAA

KJAX 291256Z 00000KT 10SM FEW120 BKN220 04/02 A3001 RMK AO2 SLP164 T00390022


Station Type Date Time Source
KJAX Decoded METAR 2020/01/29 12:56 UTC NOAA

JACKSONVILLE INTERNATIONAL, FL, United States (KJAX) 30-30N 81-42W 7M
Jan 29, 2020 - 07:56 AM EST / 2020.01.29 1256 UTC
Wind: Calm:0
Visibility: 10 mile(s):0
Sky conditions: mostly cloudy
Temperature: 39.0 F (3.9 C)
Dew Point: 36.0 F (2.2 C)
Relative Humidity: 88%
Pressure (altimeter): 30.01 in. Hg (1016 hPa)
ob: KJAX 291256Z 00000KT 10SM FEW120 BKN220 04/02 A3001 RMK AO2 SLP164 T00390022
cycle: 13

Station Type Date Time Source
KJAX TAF 2020/01/29 12:22 UTC NOAA

TAF KJAX 291120Z 2912/3012 00000KT P6SM SKC
FM291500 06005KT P6SM BKN100
FM292000 07007KT P6SM -DZ SCT040 OVC060
FM292200 05005KT 6SM -RA BR SCT010 OVC040
FM300300 03006KT 2SM RA BR BKN004 OVC008
FM301000 36009KT P6SM BKN005

Example: see airport list